LPPD

Joao Paulo II Airport

Code ICAO LPPD
Code IATA PDL
Nom Joao Paulo II Airport
Emplacement Ponta Delgada, Azores, PT
Élévation 259 pieds / 78.9 mètres
Latitude 37.74119949
Longitude -25.69790077
METAR LPPD 012230Z 36010KT 310V030 9999 -SHRA FEW005 SCT014 BKN030 23/22 Q1027
Informations extras Afficher cartes et CFS
Afficher NOTAMS
Piste Longueur Largeur Surface Élévation
12 8192 ft 148 ft ASP 259 ft
30 8192 ft 148 ft ASP 187 ft